Time;durP1;ratioP1;P1;durP2;ratioP2;P2;SDS_P1;SDS_P2;PMS_P1;PMS_P2;Temp;Humidity;BMP_temperature;BMP_pressure;BME280_temperature;BME280_humidity;BME280_pressure;Samples;Min_cycle;Max_cycle;Signal;HPM_P1;HPM_P2
2022/03/14 00:00:16;;;;;;;19.67;10.82;;;6.30;72.30;;;;;;4994286;28;20384;-85
2022/03/14 00:02:42;;;;;;;20.63;10.93;;;6.30;72.20;;;;;;4977089;28;20069;-86
2022/03/14 00:05:10;;;;;;;18.65;11.15;;;6.20;72.50;;;;;;4976694;28;20061;-85
2022/03/14 00:07:37;;;;;;;22.58;11.18;;;6.10;72.20;;;;;;4960353;28;20495;-86
2022/03/14 00:10:07;;;;;;;21.08;11.82;;;5.90;72.60;;;;;;4992810;28;20512;-85
2022/03/14 00:12:33;;;;;;;21.80;11.23;;;5.80;73.00;;;;;;4976272;28;20063;-86
2022/03/14 00:14:59;;;;;;;18.17;10.65;;;5.60;72.80;;;;;;4976489;28;20022;-85
2022/03/14 00:17:26;;;;;;;23.55;11.02;;;5.50;73.40;;;;;;4975916;28;20026;-85
2022/03/14 00:19:59;;;;;;;19.33;10.82;;;5.30;74.10;;;;;;4959343;28;20038;-85
2022/03/14 00:22:26;;;;;;;19.13;11.05;;;5.20;74.00;;;;;;4992448;28;20041;-85
2022/03/14 00:24:52;;;;;;;20.33;10.90;;;5.20;74.40;;;;;;4992587;28;20045;-85
2022/03/14 00:27:17;;;;;;;18.00;10.50;;;5.10;75.10;;;;;;4960075;28;20034;-85
2022/03/14 00:29:43;;;;;;;25.92;11.45;;;5.00;75.10;;;;;;4975405;28;20128;-85
2022/03/14 00:32:09;;;;;;;24.33;11.15;;;4.90;75.90;;;;;;4992827;28;20113;-85
2022/03/14 00:34:35;;;;;;;19.98;10.60;;;4.70;76.50;;;;;;4976056;28;20565;-86
2022/03/14 00:37:01;;;;;;;18.83;9.98;;;4.60;76.90;;;;;;4993264;28;20065;-85
2022/03/14 00:39:27;;;;;;;21.58;11.27;;;4.50;77.10;;;;;;4959727;28;20069;-85
2022/03/14 00:41:53;;;;;;;21.50;11.52;;;4.40;77.50;;;;;;4992933;28;20058;-85
2022/03/14 00:44:19;;;;;;;17.90;10.50;;;4.40;78.80;;;;;;4975823;28;20034;-85
2022/03/14 00:46:44;;;;;;;19.77;11.38;;;4.40;77.60;;;;;;4975682;28;20041;-85
2022/03/14 00:49:14;;;;;;;18.92;10.50;;;4.50;77.10;;;;;;4975382;28;20600;-85
2022/03/14 00:51:40;;;;;;;17.90;11.00;;;4.50;76.20;;;;;;4959734;28;20104;-85
2022/03/14 00:54:06;;;;;;;23.02;10.73;;;4.70;76.00;;;;;;4959439;28;20038;-85
2022/03/14 00:56:33;;;;;;;19.65;10.88;;;4.90;75.60;;;;;;4991792;28;20038;-85
2022/03/14 00:58:59;;;;;;;18.77;10.05;;;5.10;75.30;;;;;;4991584;28;20057;-85
2022/03/14 01:01:26;;;;;;;22.85;10.65;;;5.10;74.80;;;;;;4959895;28;20085;-85
2022/03/14 01:03:53;;;;;;;21.05;11.25;;;5.20;74.20;;;;;;4993047;28;20038;-85
2022/03/14 01:06:19;;;;;;;23.30;11.02;;;5.30;73.50;;;;;;4975814;28;20027;-85
2022/03/14 01:08:44;;;;;;;19.70;11.45;;;5.30;73.00;;;;;;4959091;28;20038;-85
2022/03/14 01:11:10;;;;;;;20.70;10.52;;;5.20;74.30;;;;;;4975123;28;20044;-85
2022/03/14 01:13:36;;;;;;;21.73;10.15;;;5.20;73.10;;;;;;4959386;28;20507;-86
2022/03/14 01:16:03;;;;;;;23.38;11.27;;;5.20;74.20;;;;;;4959755;28;20685;-85
2022/03/14 01:18:29;;;;;;;21.63;11.18;;;5.10;76.90;;;;;;4959801;28;20077;-85
2022/03/14 01:20:56;;;;;;;19.58;11.18;;;4.80;79.10;;;;;;4959957;28;20121;-85
2022/03/14 01:23:21;;;;;;;24.42;11.88;;;4.70;79.70;;;;;;4975819;28;20057;-86
2022/03/14 01:25:47;;;;;;;24.55;10.95;;;4.60;81.10;;;;;;4959695;28;20470;-85
2022/03/14 01:28:13;;;;;;;20.20;10.88;;;4.70;78.80;;;;;;4959582;28;20084;-85
2022/03/14 01:30:40;;;;;;;19.40;11.35;;;4.70;80.40;;;;;;4959442;28;20034;-86
2022/03/14 01:33:06;;;;;;;23.40;12.05;;;4.70;79.90;;;;;;4959558;28;20151;-86
2022/03/14 01:35:32;;;;;;;24.02;12.18;;;4.80;79.00;;;;;;4960001;28;20031;-85
2022/03/14 01:37:57;;;;;;;26.08;11.63;;;4.90;79.60;;;;;;4959706;28;20496;-85
2022/03/14 01:40:24;;;;;;;20.27;11.13;;;5.00;80.10;;;;;;4976107;28;20030;-86
2022/03/14 01:42:50;;;;;;;22.98;11.95;;;5.10;79.70;;;;;;4960793;28;20045;-85
2022/03/14 01:45:22;;;;;;;21.20;12.05;;;5.20;79.10;;;;;;4963104;28;20034;-85
2022/03/14 01:47:49;;;;;;;28.75;13.52;;;5.20;80.90;;;;;;4978633;28;20505;-85
2022/03/14 01:50:15;;;;;;;23.75;11.25;;;5.20;79.70;;;;;;4995273;28;20581;-85
2022/03/14 01:52:42;;;;;;;24.00;12.60;;;5.10;80.30;;;;;;4978654;28;20040;-86
2022/03/14 01:55:09;;;;;;;743.13;307.13;;;5.20;81.10;;;;;;4979347;28;20142;-85
2022/03/14 01:57:35;;;;;;;55.97;24.38;;;5.30;80.30;;;;;;4962709;28;20125;-85
2022/03/14 02:00:02;;;;;;;26.70;14.80;;;5.50;79.50;;;;;;4963279;28;20042;-85
2022/03/14 02:02:27;;;;;;;27.13;13.38;;;5.60;79.60;;;;;;4979256;28;20437;-85
2022/03/14 02:04:53;;;;;;;27.00;13.68;;;5.70;81.10;;;;;;4996594;28;20041;-85
2022/03/14 02:07:23;;;;;;;32.92;14.20;;;5.80;80.00;;;;;;4995318;28;20124;-85
2022/03/14 02:09:49;;;;;;;29.38;14.82;;;5.80;80.90;;;;;;4995120;28;20038;-86
2022/03/14 02:12:15;;;;;;;32.00;15.75;;;5.90;82.00;;;;;;4962509;28;20035;-85
2022/03/14 02:14:41;;;;;;;30.23;15.95;;;5.90;83.20;;;;;;4994700;28;20045;-85
2022/03/14 02:17:08;;;;;;;34.15;17.17;;;5.90;84.20;;;;;;4962080;28;20030;-85
2022/03/14 02:19:34;;;;;;;43.35;17.55;;;5.90;84.50;;;;;;4978421;28;20030;-85
2022/03/14 02:22:04;;;;;;;34.92;17.80;;;6.00;84.50;;;;;;4978643;28;20034;-85
2022/03/14 02:24:30;;;;;;;39.75;17.75;;;6.10;84.70;;;;;;4962450;28;20039;-85
2022/03/14 02:26:56;;;;;;;33.97;17.10;;;6.20;85.30;;;;;;4962133;28;20041;-85
2022/03/14 02:29:23;;;;;;;41.30;17.80;;;6.30;85.80;;;;;;4977983;28;20030;-85
2022/03/14 02:31:50;;;;;;;37.60;18.98;;;6.30;87.20;;;;;;4978811;28;20030;-85
2022/03/14 02:34:16;;;;;;;35.38;18.77;;;6.40;88.80;;;;;;4996046;28;20123;-85
2022/03/14 02:36:42;;;;;;;39.13;18.50;;;6.50;89.70;;;;;;4962339;28;20077;-85
2022/03/14 02:39:08;;;;;;;37.85;17.67;;;6.60;91.20;;;;;;4962066;28;20069;-85
2022/03/14 02:41:35;;;;;;;30.77;17.25;;;6.60;92.30;;;;;;4962326;28;20503;-86
2022/03/14 02:44:01;;;;;;;33.40;15.05;;;6.60;95.70;;;;;;4962026;28;20100;-85
2022/03/14 02:46:27;;;;;;;34.38;14.68;;;6.50;99.90;;;;;;4994359;28;20100;-86
2022/03/14 02:48:53;;;;;;;139.80;54.83;;;6.50;99.90;;;;;;4993666;28;20034;-86
2022/03/14 02:51:18;;;;;;;29.42;15.40;;;6.40;99.90;;;;;;4961958;28;20035;-85
2022/03/14 02:53:44;;;;;;;21.83;11.77;;;6.20;99.90;;;;;;4977912;28;20034;-85
2022/03/14 02:56:10;;;;;;;20.13;10.88;;;6.10;99.90;;;;;;4977749;28;20125;-86
2022/03/14 02:58:38;;;;;;;17.35;9.45;;;6.00;99.90;;;;;;4977513;28;20044;-86
2022/03/14 03:01:04;;;;;;;20.98;11.48;;;5.90;99.90;;;;;;4961759;28;20035;-85
2022/03/14 03:03:31;;;;;;;18.05;9.63;;;5.80;99.90;;;;;;4995075;28;20488;-87
2022/03/14 03:06:00;;;;;;;13.48;7.55;;;5.70;99.90;;;;;;4977762;28;20031;-86
2022/03/14 03:08:25;;;;;;;14.95;8.90;;;5.60;99.90;;;;;;4977560;28;20537;-85
2022/03/14 03:10:51;;;;;;;13.95;8.63;;;5.60;99.90;;;;;;4961568;28;20193;-86
2022/03/14 03:13:17;;;;;;;18.15;8.77;;;5.50;99.90;;;;;;4977478;28;20030;-86
2022/03/14 03:15:43;;;;;;;13.80;7.97;;;5.50;99.90;;;;;;4977626;28;20121;-86
2022/03/14 03:18:09;;;;;;;11.45;7.40;;;5.50;99.90;;;;;;4961092;28;20502;-86
2022/03/14 03:20:35;;;;;;;12.95;7.82;;;5.50;99.90;;;;;;4977226;28;20500;-86
2022/03/14 03:23:04;;;;;;;15.57;8.13;;;5.50;99.90;;;;;;4977226;28;20442;-86
2022/03/14 03:25:29;;;;;;;12.35;7.07;;;5.50;99.90;;;;;;4960967;28;20125;-86
2022/03/14 03:27:55;;;;;;;16.75;8.55;;;5.40;99.90;;;;;;4960982;28;20820;-86
2022/03/14 03:30:20;;;;;;;11.52;6.90;;;5.40;99.90;;;;;;4977350;28;20062;-86
2022/03/14 03:32:47;;;;;;;8.98;5.50;;;5.40;99.90;;;;;;4977596;28;20031;-87
2022/03/14 03:35:13;;;;;;;9.50;5.10;;;5.40;99.90;;;;;;4961391;28;20473;-86
2022/03/14 03:37:39;;;;;;;6.43;4.20;;;5.50;99.90;;;;;;4977441;28;20027;-86
2022/03/14 03:40:05;;;;;;;10.90;4.75;;;5.50;99.90;;;;;;4961302;28;20026;-86
2022/03/14 03:42:31;;;;;;;8.48;4.72;;;5.50;99.90;;;;;;4993293;28;20122;-86
2022/03/14 03:44:57;;;;;;;8.38;5.15;;;5.50;99.90;;;;;;4960560;28;20121;-86
2022/03/14 03:47:24;;;;;;;8.57;4.90;;;5.50;99.90;;;;;;4960203;28;20041;-87
2022/03/14 03:49:50;;;;;;;8.23;4.30;;;5.50;99.90;;;;;;4960571;28;20034;-87
2022/03/14 03:52:15;;;;;;;6.32;4.55;;;5.50;99.90;;;;;;4960692;28;20104;-87
2022/03/14 03:54:41;;;;;;;8.90;4.30;;;5.50;99.90;;;;;;4993108;28;20462;-86
2022/03/14 03:57:07;;;;;;;8.13;4.47;;;5.50;99.90;;;;;;4976388;28;20063;-86
2022/03/14 03:59:33;;;;;;;8.60;4.68;;;5.40;99.90;;;;;;4960831;28;20120;-86
2022/03/14 04:01:59;;;;;;;12.77;4.50;;;5.40;99.90;;;;;;4976441;28;20113;-87
2022/03/14 04:04:26;;;;;;;9.85;5.20;;;5.50;99.90;;;;;;4992883;28;20807;-86
2022/03/14 04:06:54;;;;;;;6.80;3.63;;;5.40;99.90;;;;;;4975428;28;20034;-86
2022/03/14 04:09:20;;;;;;;6.15;4.50;;;5.30;99.90;;;;;;4960104;28;20030;-87
2022/03/14 04:11:46;;;;;;;8.05;4.78;;;5.30;99.90;;;;;;4960541;28;20041;-86
2022/03/14 04:14:12;;;;;;;7.65;4.90;;;5.30;99.90;;;;;;4960472;28;20041;-86
2022/03/14 04:16:41;;;;;;;11.25;5.60;;;5.30;99.90;;;;;;4960735;28;20377;-89
2022/03/14 04:19:07;;;;;;;17.80;8.75;;;5.20;99.90;;;;;;4993888;28;20117;-88
2022/03/14 04:21:36;;;;;;;16.20;9.60;;;5.20;99.90;;;;;;4960945;28;20113;-88
2022/03/14 04:24:06;;;;;;;19.85;11.73;;;5.30;99.90;;;;;;4976817;28;20490;-88
2022/03/14 04:26:32;;;;;;;20.80;11.93;;;5.20;99.90;;;;;;4976786;28;20793;-88
2022/03/14 04:28:58;;;;;;;23.35;12.95;;;5.30;99.90;;;;;;4960262;28;20096;-87
2022/03/14 04:31:24;;;;;;;24.48;13.43;;;5.30;99.90;;;;;;4959893;28;20030;-87
2022/03/14 04:33:50;;;;;;;21.52;13.52;;;5.30;99.90;;;;;;4960409;28;20546;-88
2022/03/14 04:36:16;;;;;;;23.67;12.25;;;5.30;99.90;;;;;;4994074;28;20036;-88
2022/03/14 04:38:42;;;;;;;18.77;10.95;;;5.30;99.90;;;;;;4976174;28;20121;-88
2022/03/14 04:41:09;;;;;;;19.13;11.85;;;5.30;99.90;;;;;;4976787;28;20030;-88
2022/03/14 04:43:35;;;;;;;15.10;9.73;;;5.30;99.90;;;;;;4976277;28;20489;-87
2022/03/14 04:46:01;;;;;;;14.43;9.57;;;5.30;99.90;;;;;;4976179;28;20030;-87
2022/03/14 04:48:27;;;;;;;12.57;8.45;;;5.30;99.90;;;;;;4959564;28;20157;-87
2022/03/14 04:50:52;;;;;;;17.73;8.73;;;5.30;99.90;;;;;;4976235;28;20533;-87
2022/03/14 04:53:18;;;;;;;12.18;7.43;;;5.20;99.90;;;;;;4960037;28;20037;-87
2022/03/14 04:55:44;;;;;;;10.98;6.72;;;5.30;99.90;;;;;;4960104;28;20053;-88
2022/03/14 04:58:12;;;;;;;9.32;6.07;;;5.30;99.90;;;;;;4960378;28;20428;-88
2022/03/14 05:00:38;;;;;;;16.95;7.20;;;5.20;99.90;;;;;;4992543;28;20039;-87
2022/03/14 05:03:05;;;;;;;9.50;6.05;;;5.20;99.90;;;;;;4976659;28;20030;-87
2022/03/14 05:05:36;;;;;;;10.23;5.78;;;5.20;99.90;;;;;;4976570;28;20037;-87
2022/03/14 05:08:02;;;;;;;13.05;7.03;;;5.20;99.90;;;;;;4960058;28;20066;-87
2022/03/14 05:10:28;;;;;;;10.43;6.25;;;5.20;99.90;;;;;;4960470;28;20027;-87
2022/03/14 05:12:53;;;;;;;11.05;5.40;;;5.20;99.90;;;;;;4959969;28;20026;-87
2022/03/14 05:15:19;;;;;;;8.70;5.50;;;5.20;99.90;;;;;;4976645;28;20037;-88
2022/03/14 05:17:47;;;;;;;10.75;5.50;;;5.10;99.90;;;;;;4977240;28;20050;-88
2022/03/14 05:20:13;;;;;;;12.95;6.65;;;5.10;99.90;;;;;;4964027;28;20030;-88
2022/03/14 05:22:48;;;;;;;16.08;6.57;;;5.10;99.90;;;;;;4964204;28;20130;-88
2022/03/14 05:25:21;;;;;;;14.00;6.20;;;5.10;99.90;;;;;;4964624;28;20073;-88
2022/03/14 05:27:47;;;;;;;13.73;6.60;;;5.10;99.90;;;;;;4980408;28;20034;-88
2022/03/14 05:30:13;;;;;;;15.35;6.43;;;5.10;99.90;;;;;;4964287;28;20045;-88
2022/03/14 05:32:40;;;;;;;19.30;6.18;;;5.10;99.90;;;;;;4996936;28;20034;-87
2022/03/14 05:35:07;;;;;;;15.25;6.43;;;5.10;99.90;;;;;;4996735;28;20815;-88
2022/03/14 05:37:33;;;;;;;12.13;5.88;;;5.10;99.90;;;;;;4996612;28;20058;-87
2022/03/14 05:39:59;;;;;;;12.40;6.80;;;5.00;99.90;;;;;;4997067;28;20545;-86
2022/03/14 05:42:25;;;;;;;9.23;5.90;;;5.00;99.90;;;;;;4998133;28;20138;-85
2022/03/14 05:44:51;;;;;;;17.45;7.93;;;5.00;99.90;;;;;;4980520;28;20035;-85
2022/03/14 05:47:18;;;;;;;18.27;7.75;;;5.00;99.90;;;;;;4963634;28;20053;-86
2022/03/14 05:49:44;;;;;;;17.98;8.68;;;5.00;99.90;;;;;;4963745;28;20026;-85
2022/03/14 05:52:11;;;;;;;17.90;9.93;;;5.00;99.90;;;;;;4979548;28;20053;-85
2022/03/14 05:54:37;;;;;;;15.60;8.43;;;5.00;99.90;;;;;;4979750;28;20378;-84
2022/03/14 05:57:03;;;;;;;13.80;7.88;;;4.90;99.90;;;;;;4997224;28;20503;-84
2022/03/14 05:59:29;;;;;;;13.00;7.72;;;4.90;99.90;;;;;;4963788;28;20401;-85
2022/03/14 06:01:54;;;;;;;50.20;18.08;;;4.90;99.90;;;;;;4979484;28;20035;-85
2022/03/14 06:04:21;;;;;;;20.65;9.00;;;4.90;99.90;;;;;;4963150;28;20077;-85
2022/03/14 06:06:47;;;;;;;20.20;9.95;;;4.90;99.90;;;;;;4963227;28;20042;-84
2022/03/14 06:09:13;;;;;;;17.30;9.65;;;4.90;99.90;;;;;;4979576;28;20030;-84
2022/03/14 06:11:39;;;;;;;16.95;9.52;;;5.00;99.90;;;;;;4963226;28;20113;-85
2022/03/14 06:14:18;;;;;;;18.17;10.40;;;5.00;99.90;;;;;;4996742;28;20038;-85
2022/03/14 06:16:43;;;;;;;18.50;9.82;;;5.00;99.90;;;;;;4963300;28;20030;-84
2022/03/14 06:19:09;;;;;;;18.55;9.05;;;5.00;99.90;;;;;;4964414;28;20097;-85
2022/03/14 06:21:35;;;;;;;17.35;9.52;;;4.90;99.90;;;;;;4978654;28;20125;-84
2022/03/14 06:24:03;;;;;;;22.10;9.48;;;4.90;99.90;;;;;;4978323;28;20715;-84
2022/03/14 06:26:29;;;;;;;24.23;9.20;;;4.90;99.90;;;;;;4995833;28;20026;-84
2022/03/14 06:28:55;;;;;;;19.13;10.50;;;4.90;99.90;;;;;;4961671;28;20030;-85
2022/03/14 06:31:21;;;;;;;25.95;10.65;;;4.90;99.90;;;;;;4961543;28;20125;-84
2022/03/14 06:33:49;;;;;;;21.13;10.85;;;5.00;99.90;;;;;;4978395;28;20174;-85
2022/03/14 06:36:14;;;;;;;22.73;11.10;;;5.00;99.90;;;;;;4994991;28;20026;-84
2022/03/14 06:38:40;;;;;;;20.63;9.70;;;5.00;99.90;;;;;;4996251;28;20041;-84
2022/03/14 06:41:07;;;;;;;30.02;10.50;;;5.00;99.90;;;;;;4978774;28;20062;-84
2022/03/14 06:43:35;;;;;;;23.15;10.07;;;4.90;99.90;;;;;;4962334;28;20116;-84
2022/03/14 06:46:02;;;;;;;23.23;10.27;;;4.90;99.90;;;;;;4961772;28;20041;-83
2022/03/14 06:48:28;;;;;;;24.73;10.52;;;4.90;99.90;;;;;;4961952;28;20525;-85
2022/03/14 06:50:53;;;;;;;26.45;11.35;;;4.90;99.90;;;;;;4977965;28;20035;-85
2022/03/14 06:53:19;;;;;;;22.45;9.75;;;4.90;99.90;;;;;;4977786;28;20038;-85
2022/03/14 06:55:45;;;;;;;21.67;10.48;;;4.80;99.90;;;;;;4977882;28;20385;-84
2022/03/14 06:58:11;;;;;;;33.67;10.57;;;4.80;99.90;;;;;;4994450;28;20038;-84
2022/03/14 07:00:36;;;;;;;31.75;10.00;;;4.90;99.90;;;;;;4978275;28;20075;-83
2022/03/14 07:03:02;;;;;;;21.13;10.25;;;4.80;99.90;;;;;;4961948;28;20121;-84
2022/03/14 07:05:28;;;;;;;26.17;10.43;;;4.90;99.90;;;;;;4977889;28;20081;-84
2022/03/14 07:07:54;;;;;;;24.42;9.70;;;4.80;99.90;;;;;;4961587;28;20084;-84
2022/03/14 07:10:21;;;;;;;26.95;10.30;;;4.90;99.90;;;;;;4977719;28;20101;-84
2022/03/14 07:12:48;;;;;;;21.85;11.48;;;4.90;99.90;;;;;;4961527;28;20125;-84
2022/03/14 07:15:22;;;;;;;28.67;10.70;;;4.90;99.90;;;;;;4960723;28;20441;-85
2022/03/14 07:17:50;;;;;;;29.88;11.60;;;4.90;99.90;;;;;;4993373;28;20030;-85
2022/03/14 07:20:19;;;;;;;28.05;9.68;;;4.90;99.90;;;;;;4961399;28;20154;-84
2022/03/14 07:23:01;;;;;;;31.80;10.00;;;4.90;99.90;;;;;;4993090;28;20493;-84
2022/03/14 07:25:27;;;;;;;;;;;5.00;99.90;;;;;;4977877;28;20087;-84
2022/03/14 07:27:55;;;;;;;27.25;10.65;;;5.00;99.90;;;;;;4977325;28;20443;-85
2022/03/14 07:30:22;;;;;;;25.88;10.30;;;5.00;99.90;;;;;;4977327;28;20026;-84
2022/03/14 07:32:47;;;;;;;33.55;10.60;;;5.10;99.90;;;;;;4977381;28;20039;-84
2022/03/14 07:35:13;;;;;;;26.75;12.10;;;5.10;99.90;;;;;;4977108;28;20031;-84
2022/03/14 07:37:39;;;;;;;24.65;11.35;;;5.20;99.90;;;;;;4976483;28;20061;-84
2022/03/14 07:40:07;;;;;;;23.50;10.77;;;5.20;99.90;;;;;;4960992;28;20035;-85
2022/03/14 07:42:37;;;;;;;25.23;10.40;;;5.20;99.90;;;;;;4995741;28;20043;-84
2022/03/14 07:45:04;;;;;;;26.35;10.63;;;5.30;99.90;;;;;;4961302;28;20026;-84
2022/03/14 07:47:29;;;;;;;28.55;10.65;;;5.20;99.90;;;;;;4976986;28;20092;-84
2022/03/14 07:49:55;;;;;;;35.47;9.02;;;5.30;99.90;;;;;;4963299;28;20093;-84
2022/03/14 07:52:23;;;;;;;19.10;9.63;;;5.50;99.90;;;;;;4977134;28;20030;-84
2022/03/14 07:54:48;;;;;;;26.48;9.18;;;5.70;99.90;;;;;;4961074;28;20074;-84
2022/03/14 07:57:14;;;;;;;22.80;9.45;;;5.80;99.90;;;;;;4960460;28;20050;-85
2022/03/14 07:59:40;;;;;;;23.42;9.07;;;5.90;99.90;;;;;;4960311;28;20041;-84
2022/03/14 08:02:06;;;;;;;20.73;8.95;;;5.80;99.90;;;;;;4960572;28;20117;-85
2022/03/14 08:04:38;;;;;;;17.15;8.10;;;5.90;99.90;;;;;;4978832;28;20038;-84
2022/03/14 08:07:04;;;;;;;20.17;8.23;;;6.00;99.90;;;;;;4994077;28;20030;-84
2022/03/14 08:09:30;;;;;;;24.90;7.45;;;6.00;99.90;;;;;;4992694;28;20402;-85
2022/03/14 08:11:56;;;;;;;21.85;8.30;;;6.00;99.90;;;;;;4960289;28;20091;-84
2022/03/14 08:14:22;;;;;;;24.08;7.93;;;6.00;99.90;;;;;;4992824;28;20511;-84
2022/03/14 08:16:48;;;;;;;18.40;6.82;;;6.10;99.90;;;;;;4960405;28;20038;-85
2022/03/14 08:19:13;;;;;;;19.50;7.22;;;6.30;99.90;;;;;;4960395;28;20869;-85
2022/03/14 08:21:40;;;;;;;20.27;6.78;;;6.20;99.90;;;;;;4992574;28;20473;-85
2022/03/14 08:24:06;;;;;;;12.48;6.93;;;6.20;99.90;;;;;;4992587;28;20034;-84
2022/03/14 08:26:33;;;;;;;21.80;7.70;;;6.20;99.90;;;;;;4992759;28;20109;-85
2022/03/14 08:29:00;;;;;;;20.00;6.88;;;6.30;99.90;;;;;;4960271;28;20031;-85
2022/03/14 08:31:26;;;;;;;16.92;6.90;;;6.10;99.90;;;;;;4993652;28;20497;-85
2022/03/14 08:33:52;;;;;;;89.75;33.47;;;6.00;99.90;;;;;;4959700;28;20046;-85
2022/03/14 08:36:20;;;;;;;23.63;6.38;;;6.00;99.90;;;;;;4960358;28;20034;-84
2022/03/14 08:38:49;;;;;;;21.77;5.68;;;5.90;99.90;;;;;;4993689;28;20501;-85
2022/03/14 08:41:18;;;;;;;17.25;6.78;;;5.80;99.90;;;;;;4992506;28;20537;-85
2022/03/14 08:43:44;;;;;;;15.88;5.03;;;5.90;99.90;;;;;;4960083;28;20056;-84
2022/03/14 08:46:12;;;;;;;19.38;5.82;;;5.90;99.90;;;;;;4960084;28;20034;-85
2022/03/14 08:48:37;;;;;;;12.70;4.32;;;6.00;99.90;;;;;;4975911;28;20394;-84
2022/03/14 08:51:03;;;;;;;14.63;4.65;;;6.10;99.90;;;;;;4992174;28;20035;-84
2022/03/14 08:53:30;;;;;;;17.35;3.92;;;6.20;99.90;;;;;;4962106;28;20454;-84
2022/03/14 08:55:55;;;;;;;14.05;5.65;;;6.40;99.90;;;;;;4996627;28;20058;-84
2022/03/14 08:58:24;;;;;;;11.50;4.10;;;6.60;99.90;;;;;;4979680;28;20065;-83
2022/03/14 09:00:51;;;;;;;11.20;3.35;;;6.80;99.90;;;;;;4963982;28;20755;-85
2022/03/14 09:03:17;;;;;;;15.55;4.40;;;6.80;99.90;;;;;;4996346;28;20034;-84
2022/03/14 09:05:43;;;;;;;21.08;4.70;;;6.90;99.90;;;;;;4979531;28;20037;-84
2022/03/14 09:08:08;;;;;;;11.27;4.40;;;6.80;99.90;;;;;;4995302;28;20034;-84
2022/03/14 09:10:36;;;;;;;11.35;4.55;;;6.80;99.90;;;;;;4979407;28;20481;-84
2022/03/14 09:13:03;;;;;;;14.13;4.30;;;7.00;99.90;;;;;;4963240;28;20097;-85
2022/03/14 09:15:30;;;;;;;15.20;4.03;;;7.10;99.90;;;;;;4995413;28;20054;-85
2022/03/14 09:17:59;;;;;;;11.07;3.55;;;7.00;99.90;;;;;;4978954;28;20034;-84
2022/03/14 09:20:26;;;;;;;15.15;3.65;;;6.90;99.90;;;;;;4963232;28;20088;-85
2022/03/14 09:22:52;;;;;;;10.35;3.00;;;6.80;99.90;;;;;;4979516;28;20513;-84
2022/03/14 09:25:20;;;;;;;18.08;5.38;;;7.00;99.90;;;;;;4995645;28;20034;-84
2022/03/14 09:27:48;;;;;;;11.65;3.80;;;7.10;99.90;;;;;;4978776;28;20041;-84
2022/03/14 09:30:15;;;;;;;10.05;3.00;;;7.30;99.90;;;;;;4995261;28;20045;-84
2022/03/14 09:32:42;;;;;;;14.55;5.32;;;7.50;99.90;;;;;;4962967;28;20124;-85
2022/03/14 09:35:09;;;;;;;13.15;3.28;;;7.50;99.90;;;;;;4979417;28;20049;-84
2022/03/14 09:37:37;;;;;;;17.02;3.60;;;7.10;99.90;;;;;;4962971;28;20465;-85
2022/03/14 09:40:12;;;;;;;11.85;3.80;;;7.20;99.90;;;;;;4996581;28;20030;-84
2022/03/14 09:42:41;;;;;;;10.13;2.70;;;7.30;99.90;;;;;;4994793;28;20034;-84
2022/03/14 09:45:08;;;;;;;15.35;3.08;;;7.50;99.90;;;;;;4996496;28;20802;-85
2022/03/14 09:47:39;;;;;;;8.60;3.50;;;7.90;99.90;;;;;;4995991;28;20035;-85
2022/03/14 09:50:08;;;;;;;10.98;3.63;;;8.70;99.90;;;;;;4963343;28;20461;-84
2022/03/14 09:52:37;;;;;;;18.50;3.00;;;8.70;99.90;;;;;;4995663;28;20062;-84
2022/03/14 09:55:06;;;;;;;13.48;3.45;;;8.50;99.90;;;;;;4978132;28;20654;-85
2022/03/14 09:57:32;;;;;;;14.95;3.50;;;8.40;99.90;;;;;;4978131;28;20042;-85
2022/03/14 09:59:58;;;;;;;11.98;3.10;;;8.30;99.90;;;;;;4994695;28;20030;-84
2022/03/14 10:02:25;;;;;;;9.25;2.60;;;8.10;99.90;;;;;;4978466;28;20033;-84
2022/03/14 10:04:50;;;;;;;12.30;3.33;;;8.20;99.90;;;;;;4977206;28;20389;-84
2022/03/14 10:07:17;;;;;;;9.10;2.50;;;8.30;99.90;;;;;;4995940;28;20069;-84
2022/03/14 10:09:43;;;;;;;12.07;4.57;;;8.40;99.90;;;;;;4978688;28;20034;-83
2022/03/14 10:12:10;;;;;;;53.15;20.42;;;8.30;99.90;;;;;;4962564;28;20061;-84
2022/03/14 10:14:36;;;;;;;11.80;3.40;;;8.40;99.90;;;;;;4978494;28;20038;-83
2022/03/14 10:17:02;;;;;;;8.75;3.00;;;8.40;99.90;;;;;;4962015;28;20073;-83
2022/03/14 10:19:36;;;;;;;9.57;2.85;;;8.60;99.90;;;;;;4962308;28;20061;-83
2022/03/14 10:22:16;;;;;;;11.77;2.95;;;8.50;99.90;;;;;;4962521;28;20030;-83
2022/03/14 10:24:44;;;;;;;13.30;3.28;;;8.60;99.90;;;;;;4995602;28;20034;-83
2022/03/14 10:27:11;;;;;;;12.75;3.33;;;8.60;99.90;;;;;;4977625;28;20030;-84
2022/03/14 10:29:37;;;;;;;9.55;3.40;;;8.70;99.90;;;;;;4962374;28;20039;-83
2022/03/14 10:32:28;;;;;;;15.65;4.63;;;8.50;99.90;;;;;;4977578;28;20043;-83
2022/03/14 10:34:57;;;;;;;12.75;3.35;;;8.40;99.90;;;;;;4993794;28;20034;-83
2022/03/14 10:37:27;;;;;;;10.10;3.22;;;8.40;99.90;;;;;;4977752;28;20041;-83
2022/03/14 10:40:08;;;;;;;19.13;6.00;;;8.30;99.90;;;;;;4977589;28;20544;-83
2022/03/14 10:42:52;;;;;;;15.75;6.22;;;8.60;99.90;;;;;;4994400;28;20053;-83
2022/03/14 10:45:19;;;;;;;16.05;3.95;;;8.90;99.90;;;;;;4962179;28;20355;-83
2022/03/14 10:47:46;;;;;;;12.82;3.80;;;8.90;99.90;;;;;;4960985;28;20034;-83
2022/03/14 10:50:28;;;;;;;12.10;3.10;;;8.90;99.90;;;;;;4977181;28;20125;-83
2022/03/14 10:53:11;;;;;;;10.25;2.80;;;8.90;99.90;;;;;;4977474;28;20096;-84
2022/03/14 10:55:46;;;;;;;10.80;2.55;;;9.20;99.90;;;;;;4977737;28;20031;-84
2022/03/14 10:58:23;;;;;;;12.07;2.53;;;9.10;99.90;;;;;;4994991;28;20042;-83
2022/03/14 11:00:50;;;;;;;9.80;4.95;;;9.30;99.90;;;;;;4995948;28;20097;-84
2022/03/14 11:03:45;;;;;;;8.40;2.63;;;9.90;99.90;;;;;;4995532;28;20034;-84
2022/03/14 11:06:16;;;;;;;5.65;2.55;;;10.30;99.90;;;;;;4961071;28;20053;-84
2022/03/14 11:08:42;;;;;;;;;;;10.50;99.90;;;;;;4960897;28;20034;-84
2022/03/14 11:11:21;;;;;;;9.82;3.10;;;10.80;99.90;;;;;;4993040;28;19921;-83
2022/03/14 11:13:51;;;;;;;12.10;2.65;;;11.00;99.90;;;;;;4992912;28;20073;-84
2022/03/14 11:16:43;;;;;;;251.00;95.22;;;11.10;99.90;;;;;;4977081;28;20041;-83
2022/03/14 11:19:11;;;;;;;127.40;47.22;;;10.50;99.90;;;;;;4960747;28;20069;-83
2022/03/14 11:21:37;;;;;;;11.48;2.78;;;10.00;99.90;;;;;;4961082;28;20501;-83
2022/03/14 11:24:04;;;;;;;5.22;2.28;;;9.80;99.90;;;;;;4977158;28;20172;-83
2022/03/14 11:26:31;;;;;;;5.20;2.03;;;9.40;99.90;;;;;;4994491;28;20037;-84
2022/03/14 11:28:57;;;;;;;6.93;2.50;;;9.20;99.90;;;;;;4960794;28;20597;-83
2022/03/14 11:31:23;;;;;;;12.93;2.42;;;8.90;99.90;;;;;;4994388;28;20082;-83
2022/03/14 11:33:49;;;;;;;11.63;3.33;;;9.00;99.90;;;;;;4993094;28;20502;-84
2022/03/14 11:36:22;;;;;;;9.05;2.53;;;9.10;99.90;;;;;;4976699;28;20030;-84
2022/03/14 11:38:48;;;;;;;11.10;2.60;;;9.40;99.90;;;;;;4992496;28;20041;-83
2022/03/14 11:41:16;;;;;;;9.82;3.90;;;9.60;99.90;;;;;;4976938;28;20022;-84
2022/03/14 11:43:42;;;;;;;9.02;3.40;;;9.90;99.90;;;;;;4993045;28;20037;-83
2022/03/14 11:46:08;;;;;;;8.52;3.67;;;10.40;99.90;;;;;;4993055;28;20109;-83
2022/03/14 11:48:34;;;;;;;8.45;2.97;;;10.50;99.90;;;;;;4975996;28;20520;-82
2022/03/14 11:51:03;;;;;;;12.68;3.08;;;10.30;99.90;;;;;;4976524;28;20505;-83
2022/03/14 11:53:35;;;;;;;12.82;2.50;;;10.30;99.90;;;;;;4994184;28;20045;-83
2022/03/14 11:56:06;;;;;;;12.45;3.92;;;10.30;99.90;;;;;;4960711;28;20065;-83
2022/03/14 11:58:53;;;;;;;8.65;2.90;;;10.30;99.90;;;;;;4976286;28;20085;-83
2022/03/14 12:01:22;;;;;;;6.28;2.67;;;10.10;99.90;;;;;;4993980;28;20481;-83
2022/03/14 12:03:59;;;;;;;9.48;2.33;;;9.80;99.90;;;;;;4976457;28;20034;-83
2022/03/14 12:06:46;;;;;;;9.60;2.50;;;9.70;99.90;;;;;;4992860;28;20424;-83
2022/03/14 12:09:24;;;;;;;12.10;2.58;;;9.40;99.90;;;;;;4993050;28;20117;-83
2022/03/14 12:11:51;;;;;;;6.82;2.30;;;9.20;99.90;;;;;;4992510;28;20080;-83
2022/03/14 12:14:42;;;;;;;10.90;2.60;;;9.30;99.90;;;;;;4960390;28;20031;-83
2022/03/14 12:17:14;;;;;;;6.90;1.65;;;9.30;99.90;;;;;;4976198;28;20044;-82
2022/03/14 12:19:44;;;;;;;8.73;2.70;;;9.70;99.90;;;;;;4992163;28;20026;-83
2022/03/14 12:22:38;;;;;;;10.90;2.70;;;10.10;99.90;;;;;;4961158;28;20046;-83
2022/03/14 12:25:09;;;;;;;4.95;1.75;;;10.20;99.90;;;;;;4959402;28;20521;-83
2022/03/14 12:27:53;;;;;;;12.38;1.70;;;10.40;99.90;;;;;;4975047;28;20042;-85
2022/03/14 12:30:24;;;;;;;9.68;1.60;;;10.70;99.90;;;;;;4975842;28;20129;-83
2022/03/14 12:32:55;;;;;;;4.35;1.42;;;10.20;99.90;;;;;;4992185;28;20030;-84
2022/03/14 12:35:25;;;;;;;5.17;1.37;;;9.90;99.90;;;;;;4993610;28;20205;-84
2022/03/14 12:37:52;;;;;;;6.85;2.03;;;10.40;99.90;;;;;;4976210;28;20041;-84
2022/03/14 12:40:21;;;;;;;3.28;1.20;;;10.60;99.90;;;;;;4959584;28;20031;-84
2022/03/14 12:43:21;;;;;;;9.15;1.60;;;10.50;99.90;;;;;;4994152;28;20038;-84
2022/03/14 12:45:48;;;;;;;3.08;1.45;;;10.70;99.90;;;;;;4992229;28;20030;-85
2022/03/14 12:48:28;;;;;;;10.00;3.03;;;11.30;99.90;;;;;;4993286;28;20030;-84